sensor_id;sensor_type;location;lat;lon;timestamp;pressure;altitude;pressure_sealevel;temperature;humidity
47706;BME280;33471;52.104;1.318;2023-01-15T00:01:55;99428.21;;;5.12;48.03
47706;BME280;33471;52.104;1.318;2023-01-15T00:04:22;99426.35;;;4.45;49.64
47706;BME280;33471;52.104;1.318;2023-01-15T00:06:49;99421.86;;;3.94;51.44
47706;BME280;33471;52.104;1.318;2023-01-15T00:09:16;99426.64;;;4.11;50.84
47706;BME280;33471;52.104;1.318;2023-01-15T00:11:43;99414.66;;;3.66;51.66
47706;BME280;33471;52.104;1.318;2023-01-15T00:14:11;99413.18;;;4.29;51.01
47706;BME280;33471;52.104;1.318;2023-01-15T00:16:38;99426.84;;;4.13;51.34
47706;BME280;33471;52.104;1.318;2023-01-15T00:19:05;99423.83;;;3.77;52.64
47706;BME280;33471;52.104;1.318;2023-01-15T00:21:33;99424.50;;;4.18;51.53
47706;BME280;33471;52.104;1.318;2023-01-15T00:24:00;99428.06;;;4.07;51.54
47706;BME280;33471;52.104;1.318;2023-01-15T00:26:30;99420.43;;;4.10;51.20
47706;BME280;33471;52.104;1.318;2023-01-15T00:28:58;99422.18;;;4.09;50.89
47706;BME280;33471;52.104;1.318;2023-01-15T00:31:25;99427.53;;;3.99;51.90
47706;BME280;33471;52.104;1.318;2023-01-15T00:33:53;99421.36;;;4.18;51.36
47706;BME280;33471;52.104;1.318;2023-01-15T00:36:20;99419.27;;;3.91;52.72
47706;BME280;33471;52.104;1.318;2023-01-15T00:38:47;99413.20;;;4.38;51.30
47706;BME280;33471;52.104;1.318;2023-01-15T00:41:14;99401.77;;;4.65;50.69
47706;BME280;33471;52.104;1.318;2023-01-15T00:43:42;99413.14;;;4.22;51.63
47706;BME280;33471;52.104;1.318;2023-01-15T00:46:09;99402.01;;;4.16;52.48
47706;BME280;33471;52.104;1.318;2023-01-15T00:48:37;99401.24;;;4.39;51.44
47706;BME280;33471;52.104;1.318;2023-01-15T00:51:04;99403.65;;;4.32;52.52
47706;BME280;33471;52.104;1.318;2023-01-15T00:53:31;99406.19;;;4.16;51.86
47706;BME280;33471;52.104;1.318;2023-01-15T00:55:59;99410.12;;;3.79;52.69
47706;BME280;33471;52.104;1.318;2023-01-15T00:58:26;99409.69;;;4.13;52.21
47706;BME280;33471;52.104;1.318;2023-01-15T01:00:53;99402.75;;;4.16;51.83
47706;BME280;33471;52.104;1.318;2023-01-15T01:03:21;99395.74;;;4.22;51.48
47706;BME280;33471;52.104;1.318;2023-01-15T01:05:49;99400.68;;;4.37;51.69
47706;BME280;33471;52.104;1.318;2023-01-15T01:08:16;99396.68;;;5.15;50.41
47706;BME280;33471;52.104;1.318;2023-01-15T01:10:44;99411.65;;;4.61;51.35
47706;BME280;33471;52.104;1.318;2023-01-15T01:13:12;99416.07;;;4.38;52.40
47706;BME280;33471;52.104;1.318;2023-01-15T01:15:39;99414.90;;;4.73;51.50
47706;BME280;33471;52.104;1.318;2023-01-15T01:18:07;99411.10;;;4.38;53.20
47706;BME280;33471;52.104;1.318;2023-01-15T01:20:34;99413.94;;;4.79;52.17
47706;BME280;33471;52.104;1.318;2023-01-15T01:23:03;99402.67;;;3.82;54.10
47706;BME280;33471;52.104;1.318;2023-01-15T01:25:31;99404.45;;;3.65;54.41
47706;BME280;33471;52.104;1.318;2023-01-15T01:27:58;99395.65;;;4.08;54.51
47706;BME280;33471;52.104;1.318;2023-01-15T01:30:25;99393.76;;;4.45;53.00
47706;BME280;33471;52.104;1.318;2023-01-15T01:32:52;99389.69;;;4.92;51.32
47706;BME280;33471;52.104;1.318;2023-01-15T01:35:20;99392.84;;;4.15;53.02
47706;BME280;33471;52.104;1.318;2023-01-15T01:37:48;99392.31;;;3.71;53.64
47706;BME280;33471;52.104;1.318;2023-01-15T01:40:16;99397.55;;;3.66;55.38
47706;BME280;33471;52.104;1.318;2023-01-15T01:42:43;99401.96;;;4.80;52.64
47706;BME280;33471;52.104;1.318;2023-01-15T01:45:19;99398.83;;;4.38;53.05
47706;BME280;33471;52.104;1.318;2023-01-15T01:47:48;99402.68;;;4.67;53.07
47706;BME280;33471;52.104;1.318;2023-01-15T01:50:15;99404.02;;;4.72;52.38
47706;BME280;33471;52.104;1.318;2023-01-15T01:52:45;99402.73;;;4.26;52.56
47706;BME280;33471;52.104;1.318;2023-01-15T01:55:16;99404.45;;;4.37;53.25
47706;BME280;33471;52.104;1.318;2023-01-15T01:57:46;99405.97;;;2.77;56.29
47706;BME280;33471;52.104;1.318;2023-01-15T02:00:14;99404.82;;;3.43;54.98
47706;BME280;33471;52.104;1.318;2023-01-15T02:02:44;99404.72;;;3.78;53.90
47706;BME280;33471;52.104;1.318;2023-01-15T02:05:16;99407.00;;;3.47;54.35
47706;BME280;33471;52.104;1.318;2023-01-15T02:07:47;99402.11;;;3.84;53.92
47706;BME280;33471;52.104;1.318;2023-01-15T02:10:15;99406.86;;;3.59;54.33
47706;BME280;33471;52.104;1.318;2023-01-15T02:12:48;99411.67;;;3.34;54.43
47706;BME280;33471;52.104;1.318;2023-01-15T02:15:25;99410.59;;;4.00;53.04
47706;BME280;33471;52.104;1.318;2023-01-15T02:17:59;99411.90;;;3.73;53.49
47706;BME280;33471;52.104;1.318;2023-01-15T02:20:31;99409.55;;;3.53;54.19
47706;BME280;33471;52.104;1.318;2023-01-15T02:23:13;99409.84;;;3.47;54.67
47706;BME280;33471;52.104;1.318;2023-01-15T02:25:56;99405.33;;;3.34;54.28
47706;BME280;33471;52.104;1.318;2023-01-15T02:28:29;99414.26;;;3.05;54.89
47706;BME280;33471;52.104;1.318;2023-01-15T02:31:06;99402.02;;;3.28;54.61
47706;BME280;33471;52.104;1.318;2023-01-15T02:33:37;99407.18;;;3.50;54.18
47706;BME280;33471;52.104;1.318;2023-01-15T02:36:08;99411.55;;;3.32;55.31
47706;BME280;33471;52.104;1.318;2023-01-15T02:38:42;99417.74;;;2.48;57.00
47706;BME280;33471;52.104;1.318;2023-01-15T02:41:13;99417.35;;;2.89;56.15
47706;BME280;33471;52.104;1.318;2023-01-15T02:43:43;99415.96;;;2.76;57.51
47706;BME280;33471;52.104;1.318;2023-01-15T02:46:14;99409.93;;;3.28;55.51
47706;BME280;33471;52.104;1.318;2023-01-15T02:48:45;99412.45;;;2.81;56.12
47706;BME280;33471;52.104;1.318;2023-01-15T02:51:15;99410.18;;;3.48;55.06
47706;BME280;33471;52.104;1.318;2023-01-15T02:53:47;99413.86;;;2.86;55.43
47706;BME280;33471;52.104;1.318;2023-01-15T02:56:19;99419.93;;;3.48;54.76
47706;BME280;33471;52.104;1.318;2023-01-15T02:58:53;99418.09;;;2.74;56.05
47706;BME280;33471;52.104;1.318;2023-01-15T03:01:25;99413.92;;;3.54;53.65
47706;BME280;33471;52.104;1.318;2023-01-15T03:03:58;99413.33;;;3.44;53.96
47706;BME280;33471;52.104;1.318;2023-01-15T03:06:36;99418.08;;;3.40;53.63
47706;BME280;33471;52.104;1.318;2023-01-15T03:09:05;99422.66;;;2.93;54.70
47706;BME280;33471;52.104;1.318;2023-01-15T03:11:38;99417.88;;;3.51;53.95
47706;BME280;33471;52.104;1.318;2023-01-15T03:14:15;99422.15;;;3.03;54.22
47706;BME280;33471;52.104;1.318;2023-01-15T03:16:47;99424.32;;;3.24;53.82
47706;BME280;33471;52.104;1.318;2023-01-15T03:19:22;99413.98;;;3.31;54.50
47706;BME280;33471;52.104;1.318;2023-01-15T03:21:55;99419.09;;;2.61;56.36
47706;BME280;33471;52.104;1.318;2023-01-15T03:24:29;99407.01;;;2.34;57.02
47706;BME280;33471;52.104;1.318;2023-01-15T03:26:58;99403.88;;;2.58;56.35
47706;BME280;33471;52.104;1.318;2023-01-15T03:29:29;99401.82;;;2.81;55.88
47706;BME280;33471;52.104;1.318;2023-01-15T03:31:59;99405.31;;;2.04;58.07
47706;BME280;33471;52.104;1.318;2023-01-15T03:34:32;99395.21;;;2.52;56.20
47706;BME280;33471;52.104;1.318;2023-01-15T03:37:03;99388.53;;;3.17;54.97
47706;BME280;33471;52.104;1.318;2023-01-15T03:39:30;99378.22;;;2.96;55.92
47706;BME280;33471;52.104;1.318;2023-01-15T03:42:07;99385.92;;;2.72;56.53
47706;BME280;33471;52.104;1.318;2023-01-15T03:44:42;99386.19;;;2.99;56.42
47706;BME280;33471;52.104;1.318;2023-01-15T03:47:19;99377.56;;;2.30;57.97
47706;BME280;33471;52.104;1.318;2023-01-15T03:49:55;99380.54;;;2.41;57.97
47706;BME280;33471;52.104;1.318;2023-01-15T03:52:30;99383.65;;;2.38;57.97
47706;BME280;33471;52.104;1.318;2023-01-15T03:55:08;99378.54;;;2.35;57.84
47706;BME280;33471;52.104;1.318;2023-01-15T03:57:38;99375.17;;;2.76;56.73
47706;BME280;33471;52.104;1.318;2023-01-15T04:00:12;99387.31;;;2.82;56.52
47706;BME280;33471;52.104;1.318;2023-01-15T04:02:41;99387.51;;;2.58;56.61
47706;BME280;33471;52.104;1.318;2023-01-15T04:05:10;99388.99;;;2.42;57.04
47706;BME280;33471;52.104;1.318;2023-01-15T04:07:38;99378.38;;;2.99;55.55
47706;BME280;33471;52.104;1.318;2023-01-15T04:10:07;99373.79;;;2.69;56.34
47706;BME280;33471;52.104;1.318;2023-01-15T04:12:35;99371.96;;;2.59;56.25
47706;BME280;33471;52.104;1.318;2023-01-15T04:15:03;99364.06;;;2.91;55.02
47706;BME280;33471;52.104;1.318;2023-01-15T04:17:30;99360.11;;;2.82;55.25
47706;BME280;33471;52.104;1.318;2023-01-15T04:19:57;99363.00;;;3.77;54.22
47706;BME280;33471;52.104;1.318;2023-01-15T04:22:24;99356.82;;;3.21;55.29
47706;BME280;33471;52.104;1.318;2023-01-15T04:24:51;99358.16;;;2.79;57.18
47706;BME280;33471;52.104;1.318;2023-01-15T04:27:19;99352.53;;;2.55;57.14
47706;BME280;33471;52.104;1.318;2023-01-15T04:29:46;99360.19;;;2.38;56.92
47706;BME280;33471;52.104;1.318;2023-01-15T04:32:14;99367.71;;;2.55;57.32
47706;BME280;33471;52.104;1.318;2023-01-15T04:34:41;99358.15;;;2.55;57.79
47706;BME280;33471;52.104;1.318;2023-01-15T04:37:08;99368.04;;;2.25;57.75
47706;BME280;33471;52.104;1.318;2023-01-15T04:39:35;99361.43;;;2.62;57.33
47706;BME280;33471;52.104;1.318;2023-01-15T04:42:03;99344.63;;;2.55;56.52
47706;BME280;33471;52.104;1.318;2023-01-15T04:44:32;99344.11;;;3.46;55.46
47706;BME280;33471;52.104;1.318;2023-01-15T04:47:00;99331.29;;;3.01;55.42
47706;BME280;33471;52.104;1.318;2023-01-15T04:49:28;99325.57;;;3.15;55.78
47706;BME280;33471;52.104;1.318;2023-01-15T04:51:55;99325.01;;;3.04;55.34
47706;BME280;33471;52.104;1.318;2023-01-15T04:54:23;99322.05;;;2.82;56.89
47706;BME280;33471;52.104;1.318;2023-01-15T04:56:52;99313.18;;;2.41;57.73
47706;BME280;33471;52.104;1.318;2023-01-15T04:59:20;99318.09;;;2.58;57.02
47706;BME280;33471;52.104;1.318;2023-01-15T05:01:49;99311.57;;;2.24;58.66
47706;BME280;33471;52.104;1.318;2023-01-15T05:04:16;99307.99;;;2.18;58.48
47706;BME280;33471;52.104;1.318;2023-01-15T05:06:43;99315.43;;;1.84;59.22
47706;BME280;33471;52.104;1.318;2023-01-15T05:09:11;99317.25;;;2.53;57.61
47706;BME280;33471;52.104;1.318;2023-01-15T05:11:39;99312.40;;;1.83;59.90
47706;BME280;33471;52.104;1.318;2023-01-15T05:14:07;99315.27;;;3.23;55.65
47706;BME280;33471;52.104;1.318;2023-01-15T05:16:34;99316.20;;;2.75;56.64
47706;BME280;33471;52.104;1.318;2023-01-15T05:19:03;99324.78;;;2.73;57.08
47706;BME280;33471;52.104;1.318;2023-01-15T05:21:33;99320.71;;;1.86;58.94
47706;BME280;33471;52.104;1.318;2023-01-15T05:24:02;99311.90;;;2.42;57.32
47706;BME280;33471;52.104;1.318;2023-01-15T05:26:32;99314.24;;;2.17;57.84
47706;BME280;33471;52.104;1.318;2023-01-15T05:29:00;99332.12;;;2.03;59.05
47706;BME280;33471;52.104;1.318;2023-01-15T05:31:28;99325.47;;;2.23;57.90
47706;BME280;33471;52.104;1.318;2023-01-15T05:33:57;99338.15;;;2.67;57.80
47706;BME280;33471;52.104;1.318;2023-01-15T05:36:26;99333.51;;;2.08;58.44
47706;BME280;33471;52.104;1.318;2023-01-15T05:38:54;99340.00;;;1.85;59.10
47706;BME280;33471;52.104;1.318;2023-01-15T05:41:22;99339.22;;;1.83;59.66
47706;BME280;33471;52.104;1.318;2023-01-15T05:43:49;99333.53;;;1.78;60.13
47706;BME280;33471;52.104;1.318;2023-01-15T05:46:17;99325.00;;;2.11;59.30
47706;BME280;33471;52.104;1.318;2023-01-15T05:48:44;99327.73;;;2.28;58.48
47706;BME280;33471;52.104;1.318;2023-01-15T05:51:11;99324.23;;;2.25;58.22
47706;BME280;33471;52.104;1.318;2023-01-15T05:53:39;99322.27;;;2.12;58.14
47706;BME280;33471;52.104;1.318;2023-01-15T05:56:06;99322.36;;;2.51;57.18
47706;BME280;33471;52.104;1.318;2023-01-15T05:58:34;99312.40;;;2.24;58.21
47706;BME280;33471;52.104;1.318;2023-01-15T06:01:06;99312.84;;;2.18;58.18
47706;BME280;33471;52.104;1.318;2023-01-15T06:03:34;99307.97;;;2.09;58.49
47706;BME280;33471;52.104;1.318;2023-01-15T06:06:02;99297.54;;;2.34;57.97
47706;BME280;33471;52.104;1.318;2023-01-15T06:08:29;99306.43;;;2.01;58.98
47706;BME280;33471;52.104;1.318;2023-01-15T06:10:56;99307.63;;;2.35;58.71
47706;BME280;33471;52.104;1.318;2023-01-15T06:13:24;99315.25;;;2.23;58.95
47706;BME280;33471;52.104;1.318;2023-01-15T06:15:51;99300.43;;;2.06;59.60
47706;BME280;33471;52.104;1.318;2023-01-15T06:18:18;99301.22;;;1.90;59.31
47706;BME280;33471;52.104;1.318;2023-01-15T06:20:45;99293.45;;;1.75;60.59
47706;BME280;33471;52.104;1.318;2023-01-15T06:23:12;99291.99;;;2.36;60.21
47706;BME280;33471;52.104;1.318;2023-01-15T06:25:40;99288.45;;;1.84;60.41
47706;BME280;33471;52.104;1.318;2023-01-15T06:28:09;99304.45;;;2.29;58.88
47706;BME280;33471;52.104;1.318;2023-01-15T06:30:37;99298.78;;;1.87;59.16
47706;BME280;33471;52.104;1.318;2023-01-15T06:33:05;99310.32;;;2.85;57.69
47706;BME280;33471;52.104;1.318;2023-01-15T06:35:33;99310.42;;;2.10;58.76
47706;BME280;33471;52.104;1.318;2023-01-15T06:38:01;99320.59;;;1.80;60.01
47706;BME280;33471;52.104;1.318;2023-01-15T06:40:28;99313.38;;;2.38;58.18
47706;BME280;33471;52.104;1.318;2023-01-15T06:42:57;99328.17;;;2.48;57.92
47706;BME280;33471;52.104;1.318;2023-01-15T06:45:25;99313.32;;;2.64;57.69
47706;BME280;33471;52.104;1.318;2023-01-15T06:47:52;99323.38;;;1.76;59.60
47706;BME280;33471;52.104;1.318;2023-01-15T06:50:19;99314.19;;;2.45;58.42
47706;BME280;33471;52.104;1.318;2023-01-15T06:52:47;99321.65;;;2.66;57.09
47706;BME280;33471;52.104;1.318;2023-01-15T06:55:14;99316.28;;;2.21;58.46
47706;BME280;33471;52.104;1.318;2023-01-15T06:57:41;99314.94;;;2.25;59.12
47706;BME280;33471;52.104;1.318;2023-01-15T07:00:11;99305.14;;;1.72;60.56
47706;BME280;33471;52.104;1.318;2023-01-15T07:02:38;99303.98;;;1.93;60.09
47706;BME280;33471;52.104;1.318;2023-01-15T07:05:06;99302.83;;;1.75;60.56
47706;BME280;33471;52.104;1.318;2023-01-15T07:07:33;99299.10;;;1.91;58.97
47706;BME280;33471;52.104;1.318;2023-01-15T07:10:01;99303.98;;;1.94;59.97
47706;BME280;33471;52.104;1.318;2023-01-15T07:12:28;99291.10;;;1.90;60.28
47706;BME280;33471;52.104;1.318;2023-01-15T07:14:56;99296.99;;;1.34;61.46
47706;BME280;33471;52.104;1.318;2023-01-15T07:17:22;99294.85;;;1.61;61.52
47706;BME280;33471;52.104;1.318;2023-01-15T07:19:50;99290.48;;;1.71;60.81
47706;BME280;33471;52.104;1.318;2023-01-15T07:22:17;99300.15;;;1.75;60.76
47706;BME280;33471;52.104;1.318;2023-01-15T07:24:44;99298.93;;;2.52;59.00
47706;BME280;33471;52.104;1.318;2023-01-15T07:27:11;99309.38;;;2.39;59.16
47706;BME280;33471;52.104;1.318;2023-01-15T07:29:38;99295.41;;;1.72;59.89
47706;BME280;33471;52.104;1.318;2023-01-15T07:32:05;99333.06;;;1.84;61.56
47706;BME280;33471;52.104;1.318;2023-01-15T07:34:32;99315.97;;;1.81;60.59
47706;BME280;33471;52.104;1.318;2023-01-15T07:37:00;99313.52;;;2.09;59.97
47706;BME280;33471;52.104;1.318;2023-01-15T07:39:27;99310.11;;;2.03;58.97
47706;BME280;33471;52.104;1.318;2023-01-15T07:41:54;99292.14;;;2.40;57.90
47706;BME280;33471;52.104;1.318;2023-01-15T07:44:22;99301.91;;;2.43;58.03
47706;BME280;33471;52.104;1.318;2023-01-15T07:46:49;99295.03;;;2.90;56.41
47706;BME280;33471;52.104;1.318;2023-01-15T07:49:17;99296.36;;;2.70;56.75
47706;BME280;33471;52.104;1.318;2023-01-15T07:51:44;99296.24;;;2.75;56.58
47706;BME280;33471;52.104;1.318;2023-01-15T07:54:11;99303.15;;;3.00;55.59
47706;BME280;33471;52.104;1.318;2023-01-15T07:56:38;99299.19;;;3.15;55.40
47706;BME280;33471;52.104;1.318;2023-01-15T07:59:06;99298.57;;;3.01;56.28
47706;BME280;33471;52.104;1.318;2023-01-15T08:01:33;99299.15;;;2.74;57.15
47706;BME280;33471;52.104;1.318;2023-01-15T08:04:00;99304.09;;;2.21;58.46
47706;BME280;33471;52.104;1.318;2023-01-15T08:06:27;99295.80;;;3.17;55.90
47706;BME280;33471;52.104;1.318;2023-01-15T08:08:55;99294.16;;;2.64;56.97
47706;BME280;33471;52.104;1.318;2023-01-15T08:11:22;99291.11;;;2.57;57.78
47706;BME280;33471;52.104;1.318;2023-01-15T08:13:49;99304.65;;;2.12;58.75
47706;BME280;33471;52.104;1.318;2023-01-15T08:16:16;99292.53;;;2.67;58.01
47706;BME280;33471;52.104;1.318;2023-01-15T08:18:43;99292.81;;;2.31;59.10
47706;BME280;33471;52.104;1.318;2023-01-15T08:21:13;99295.62;;;2.57;58.46
47706;BME280;33471;52.104;1.318;2023-01-15T08:23:41;99289.23;;;2.69;57.87
47706;BME280;33471;52.104;1.318;2023-01-15T08:26:08;99288.54;;;2.31;58.51
47706;BME280;33471;52.104;1.318;2023-01-15T08:28:35;99293.41;;;2.71;58.37
47706;BME280;33471;52.104;1.318;2023-01-15T08:31:04;99306.37;;;2.38;59.61
47706;BME280;33471;52.104;1.318;2023-01-15T08:33:31;99286.23;;;2.84;58.67
47706;BME280;33471;52.104;1.318;2023-01-15T08:35:58;99297.19;;;2.42;59.54
47706;BME280;33471;52.104;1.318;2023-01-15T08:38:26;99298.32;;;2.68;58.75
47706;BME280;33471;52.104;1.318;2023-01-15T08:40:53;99296.44;;;2.61;58.76
47706;BME280;33471;52.104;1.318;2023-01-15T08:43:20;99285.66;;;3.12;57.60
47706;BME280;33471;52.104;1.318;2023-01-15T08:45:48;99288.45;;;3.16;57.29
47706;BME280;33471;52.104;1.318;2023-01-15T08:48:15;99286.64;;;3.43;57.19
47706;BME280;33471;52.104;1.318;2023-01-15T08:50:43;99273.65;;;3.21;58.04
47706;BME280;33471;52.104;1.318;2023-01-15T08:53:11;99281.82;;;2.88;58.39
47706;BME280;33471;52.104;1.318;2023-01-15T08:55:39;99281.39;;;2.77;59.00
47706;BME280;33471;52.104;1.318;2023-01-15T08:58:06;99277.29;;;2.57;59.40
47706;BME280;33471;52.104;1.318;2023-01-15T09:00:33;99288.96;;;3.18;57.40
47706;BME280;33471;52.104;1.318;2023-01-15T09:03:00;99293.90;;;3.53;57.81
47706;BME280;33471;52.104;1.318;2023-01-15T09:05:27;99288.51;;;3.63;57.45
47706;BME280;33471;52.104;1.318;2023-01-15T09:07:55;99292.46;;;3.46;58.04
47706;BME280;33471;52.104;1.318;2023-01-15T09:10:23;99296.52;;;2.97;58.98
47706;BME280;33471;52.104;1.318;2023-01-15T09:12:50;99302.41;;;2.97;58.91
47706;BME280;33471;52.104;1.318;2023-01-15T09:15:18;99298.15;;;3.68;57.53
47706;BME280;33471;52.104;1.318;2023-01-15T09:17:45;99295.69;;;3.77;56.89
47706;BME280;33471;52.104;1.318;2023-01-15T09:20:13;99301.67;;;3.53;57.94
47706;BME280;33471;52.104;1.318;2023-01-15T09:22:41;99289.53;;;3.67;57.11
47706;BME280;33471;52.104;1.318;2023-01-15T09:25:09;99297.19;;;3.53;57.36
47706;BME280;33471;52.104;1.318;2023-01-15T09:27:35;99300.13;;;3.51;57.70
47706;BME280;33471;52.104;1.318;2023-01-15T09:30:03;99297.28;;;3.71;57.67
47706;BME280;33471;52.104;1.318;2023-01-15T09:32:30;99311.51;;;3.02;58.40
47706;BME280;33471;52.104;1.318;2023-01-15T09:34:57;99299.24;;;3.88;56.33
47706;BME280;33471;52.104;1.318;2023-01-15T09:37:25;99303.96;;;3.70;56.87
47706;BME280;33471;52.104;1.318;2023-01-15T09:39:51;99312.78;;;3.81;56.25
47706;BME280;33471;52.104;1.318;2023-01-15T09:42:30;99307.48;;;3.67;56.37
47706;BME280;33471;52.104;1.318;2023-01-15T09:45:13;99307.09;;;3.90;56.42
47706;BME280;33471;52.104;1.318;2023-01-15T09:48:01;99317.13;;;3.83;57.35
47706;BME280;33471;52.104;1.318;2023-01-15T09:50:42;99313.56;;;4.14;55.73
47706;BME280;33471;52.104;1.318;2023-01-15T09:53:26;99313.54;;;3.84;56.11
47706;BME280;33471;52.104;1.318;2023-01-15T09:55:55;99326.56;;;3.92;56.10
47706;BME280;33471;52.104;1.318;2023-01-15T09:58:31;99328.79;;;3.98;56.71
47706;BME280;33471;52.104;1.318;2023-01-15T10:00:59;99323.48;;;3.81;56.62
47706;BME280;33471;52.104;1.318;2023-01-15T10:03:32;99326.97;;;3.69;56.89
47706;BME280;33471;52.104;1.318;2023-01-15T10:06:09;99325.98;;;4.29;55.07
47706;BME280;33471;52.104;1.318;2023-01-15T10:08:43;99319.40;;;4.82;54.30
47706;BME280;33471;52.104;1.318;2023-01-15T10:11:27;99323.14;;;4.37;54.11
47706;BME280;33471;52.104;1.318;2023-01-15T10:14:00;99330.56;;;4.09;55.22
47706;BME280;33471;52.104;1.318;2023-01-15T10:16:32;99333.55;;;4.06;55.38
47706;BME280;33471;52.104;1.318;2023-01-15T10:19:00;99339.99;;;4.50;54.90
47706;BME280;33471;52.104;1.318;2023-01-15T10:21:32;99345.79;;;3.92;56.22
47706;BME280;33471;52.104;1.318;2023-01-15T10:24:06;99346.37;;;4.21;55.66
47706;BME280;33471;52.104;1.318;2023-01-15T10:26:38;99332.80;;;4.39;55.01
47706;BME280;33471;52.104;1.318;2023-01-15T10:29:14;99330.75;;;4.50;54.86
47706;BME280;33471;52.104;1.318;2023-01-15T10:31:49;99328.55;;;4.49;54.92
47706;BME280;33471;52.104;1.318;2023-01-15T10:35:03;99334.46;;;5.92;53.55
47706;BME280;33471;52.104;1.318;2023-01-15T10:37:35;99335.54;;;5.86;52.62
47706;BME280;33471;52.104;1.318;2023-01-15T10:40:19;99351.73;;;5.57;52.22
47706;BME280;33471;52.104;1.318;2023-01-15T10:42:56;99350.40;;;4.92;53.75
47706;BME280;33471;52.104;1.318;2023-01-15T10:45:31;99368.27;;;5.43;53.00
47706;BME280;33471;52.104;1.318;2023-01-15T10:48:03;99385.64;;;5.25;52.77
47706;BME280;33471;52.104;1.318;2023-01-15T10:50:32;99366.54;;;5.19;52.95
47706;BME280;33471;52.104;1.318;2023-01-15T10:53:04;99389.39;;;5.15;52.99
47706;BME280;33471;52.104;1.318;2023-01-15T10:55:37;99395.66;;;5.31;52.59
47706;BME280;33471;52.104;1.318;2023-01-15T10:58:12;99405.06;;;5.70;52.05
47706;BME280;33471;52.104;1.318;2023-01-15T11:00:47;99400.62;;;4.78;53.41
47706;BME280;33471;52.104;1.318;2023-01-15T11:03:19;99408.65;;;5.36;53.08
47706;BME280;33471;52.104;1.318;2023-01-15T11:05:48;99407.36;;;5.65;52.19
47706;BME280;33471;52.104;1.318;2023-01-15T11:08:20;99406.45;;;5.49;52.35
47706;BME280;33471;52.104;1.318;2023-01-15T11:10:48;99410.22;;;5.19;54.04
47706;BME280;33471;52.104;1.318;2023-01-15T11:13:20;99403.28;;;5.10;53.27
47706;BME280;33471;52.104;1.318;2023-01-15T11:15:48;99418.72;;;4.74;54.81
47706;BME280;33471;52.104;1.318;2023-01-15T11:18:22;99410.48;;;5.01;54.51
47706;BME280;33471;52.104;1.318;2023-01-15T11:20:51;99405.37;;;4.79;55.05
47706;BME280;33471;52.104;1.318;2023-01-15T11:23:19;99422.88;;;4.75;55.19
47706;BME280;33471;52.104;1.318;2023-01-15T11:25:49;99406.37;;;5.21;54.56
47706;BME280;33471;52.104;1.318;2023-01-15T11:28:17;99406.52;;;5.30;53.72
47706;BME280;33471;52.104;1.318;2023-01-15T11:30:53;99410.26;;;5.27;53.63
47706;BME280;33471;52.104;1.318;2023-01-15T11:33:22;99417.43;;;5.37;53.50
47706;BME280;33471;52.104;1.318;2023-01-15T11:35:51;99402.04;;;4.24;54.47
47706;BME280;33471;52.104;1.318;2023-01-15T11:38:18;99405.24;;;4.95;54.07
47706;BME280;33471;52.104;1.318;2023-01-15T11:40:51;99403.80;;;4.64;54.87
47706;BME280;33471;52.104;1.318;2023-01-15T11:43:20;99405.62;;;4.55;55.51
47706;BME280;33471;52.104;1.318;2023-01-15T11:45:50;99416.67;;;4.45;55.80
47706;BME280;33471;52.104;1.318;2023-01-15T11:48:20;99421.97;;;4.84;54.85
47706;BME280;33471;52.104;1.318;2023-01-15T11:50:51;99425.70;;;5.08;54.05
47706;BME280;33471;52.104;1.318;2023-01-15T11:53:21;99424.32;;;4.81;54.50
47706;BME280;33471;52.104;1.318;2023-01-15T11:55:52;99429.28;;;5.37;53.57
47706;BME280;33471;52.104;1.318;2023-01-15T11:58:21;99418.74;;;5.22;53.71
47706;BME280;33471;52.104;1.318;2023-01-15T12:00:50;99422.20;;;4.80;54.03
47706;BME280;33471;52.104;1.318;2023-01-15T12:03:20;99425.84;;;4.92;55.74
47706;BME280;33471;52.104;1.318;2023-01-15T12:05:54;99419.85;;;4.14;56.66
47706;BME280;33471;52.104;1.318;2023-01-15T12:08:34;99424.71;;;5.74;54.08
47706;BME280;33471;52.104;1.318;2023-01-15T12:11:11;99423.92;;;4.99;55.49
47706;BME280;33471;52.104;1.318;2023-01-15T12:13:48;99422.59;;;5.37;54.79
47706;BME280;33471;52.104;1.318;2023-01-15T12:16:24;99431.87;;;4.86;56.02
47706;BME280;33471;52.104;1.318;2023-01-15T12:18:57;99433.42;;;5.09;54.30
47706;BME280;33471;52.104;1.318;2023-01-15T12:21:52;99425.05;;;4.97;55.07
47706;BME280;33471;52.104;1.318;2023-01-15T12:24:48;99427.12;;;5.39;54.70
47706;BME280;33471;52.104;1.318;2023-01-15T12:27:39;99431.31;;;5.34;53.92
47706;BME280;33471;52.104;1.318;2023-01-15T12:30:20;99432.99;;;4.72;55.06
47706;BME280;33471;52.104;1.318;2023-01-15T12:32:57;99435.84;;;4.72;55.58
47706;BME280;33471;52.104;1.318;2023-01-15T12:35:29;99451.59;;;4.97;55.97
47706;BME280;33471;52.104;1.318;2023-01-15T12:38:00;99436.30;;;4.22;57.48
47706;BME280;33471;52.104;1.318;2023-01-15T12:40:35;99432.93;;;5.42;54.95
47706;BME280;33471;52.104;1.318;2023-01-15T12:43:11;99434.66;;;4.89;55.60
47706;BME280;33471;52.104;1.318;2023-01-15T12:45:46;99436.96;;;4.80;55.23
47706;BME280;33471;52.104;1.318;2023-01-15T12:48:20;99436.97;;;5.21;55.22
47706;BME280;33471;52.104;1.318;2023-01-15T12:50:50;99447.01;;;4.83;54.97
47706;BME280;33471;52.104;1.318;2023-01-15T12:53:23;99440.20;;;5.69;52.77
47706;BME280;33471;52.104;1.318;2023-01-15T12:55:57;99447.03;;;6.52;51.08
47706;BME280;33471;52.104;1.318;2023-01-15T12:58:46;99443.51;;;6.03;51.43
47706;BME280;33471;52.104;1.318;2023-01-15T13:01:20;99446.94;;;5.67;52.17
47706;BME280;33471;52.104;1.318;2023-01-15T13:04:01;99446.83;;;5.91;51.73
47706;BME280;33471;52.104;1.318;2023-01-15T13:06:33;99454.73;;;6.28;50.48
47706;BME280;33471;52.104;1.318;2023-01-15T13:09:04;99448.48;;;6.30;50.14
47706;BME280;33471;52.104;1.318;2023-01-15T13:11:35;99446.26;;;7.46;48.04
47706;BME280;33471;52.104;1.318;2023-01-15T13:14:04;99442.17;;;8.20;46.46
47706;BME280;33471;52.104;1.318;2023-01-15T13:16:41;99442.23;;;7.06;48.19
47706;BME280;33471;52.104;1.318;2023-01-15T13:19:24;99435.87;;;8.28;46.43
47706;BME280;33471;52.104;1.318;2023-01-15T13:21:56;99437.88;;;7.51;46.54
47706;BME280;33471;52.104;1.318;2023-01-15T13:24:45;99434.14;;;7.17;47.90
47706;BME280;33471;52.104;1.318;2023-01-15T13:27:25;99433.78;;;7.20;47.61